createdAt,value
2022-10-05T00:00:49.650Z,75.77
2022-10-05T00:03:17.565Z,75.78
2022-10-05T00:05:46.903Z,75.20
2022-10-05T00:08:18.690Z,75.43
2022-10-05T00:10:47.988Z,75.61
2022-10-05T00:13:17.453Z,75.55
2022-10-05T00:15:45.248Z,75.13
2022-10-05T00:18:18.085Z,75.28
2022-10-05T00:20:47.086Z,74.97
2022-10-05T00:23:19.915Z,75.30
2022-10-05T00:25:49.267Z,74.72
2022-10-05T00:28:22.973Z,75.23
2022-10-05T00:30:50.795Z,75.45
2022-10-05T00:33:18.509Z,75.36
2022-10-05T00:35:46.324Z,75.58
2022-10-05T00:38:14.064Z,75.78
2022-10-05T00:41:01.821Z,75.40
2022-10-05T00:43:49.403Z,75.86
2022-10-05T00:46:22.065Z,75.87
2022-10-05T00:49:03.459Z,75.32
2022-10-05T00:51:32.912Z,76.01
2022-10-05T00:54:21.752Z,76.07
2022-10-05T00:57:07.409Z,75.26
2022-10-05T00:59:50.005Z,75.75
2022-10-05T01:02:26.534Z,76.21
2022-10-05T01:05:02.261Z,76.35
2022-10-05T01:07:39.621Z,76.59
2022-10-05T01:10:15.855Z,76.58
2022-10-05T01:12:54.515Z,76.25
2022-10-05T01:15:31.401Z,76.65
2022-10-05T01:18:06.917Z,76.20
2022-10-05T01:20:49.821Z,76.40
2022-10-05T01:23:32.683Z,76.39
2022-10-05T01:26:17.124Z,77.12
2022-10-05T01:28:51.462Z,76.54
2022-10-05T01:31:27.176Z,77.16
2022-10-05T01:34:04.232Z,77.36
2022-10-05T01:36:39.003Z,77.21
2022-10-05T01:39:12.278Z,77.55
2022-10-05T01:41:49.057Z,77.34
2022-10-05T01:44:22.785Z,77.72
2022-10-05T01:46:58.936Z,77.61
2022-10-05T01:49:39.014Z,78.21
2022-10-05T01:52:22.414Z,78.33
2022-10-05T01:55:06.791Z,78.39
2022-10-05T01:57:45.369Z,78.53
2022-10-05T02:00:17.886Z,78.76
2022-10-05T02:02:49.827Z,78.91
2022-10-05T02:05:22.584Z,79.23
2022-10-05T02:07:55.314Z,80.11
2022-10-05T02:10:27.765Z,80.30
2022-10-05T02:13:00.391Z,80.15
2022-10-05T02:15:35.007Z,80.02
2022-10-05T02:18:08.793Z,80.35
2022-10-05T02:20:40.568Z,80.00
2022-10-05T02:23:13.517Z,80.34
2022-10-05T02:25:46.564Z,80.03
2022-10-05T02:28:20.355Z,80.29
2022-10-05T02:30:55.188Z,79.95
2022-10-05T02:33:29.022Z,80.42
2022-10-05T02:36:02.480Z,80.00
2022-10-05T02:38:41.400Z,80.65
2022-10-05T02:41:19.222Z,80.54
2022-10-05T02:43:54.565Z,80.75
2022-10-05T02:46:36.675Z,80.54
2022-10-05T02:49:18.528Z,80.29
2022-10-05T02:51:57.517Z,80.43
2022-10-05T02:54:40.464Z,80.46
2022-10-05T02:57:15.221Z,80.74
2022-10-05T02:59:54.803Z,80.74
2022-10-05T03:02:27.834Z,80.77
2022-10-05T03:05:03.466Z,80.95
2022-10-05T03:07:36.077Z,80.88
2022-10-05T03:10:12.642Z,80.90
2022-10-05T03:12:53.649Z,80.55
2022-10-05T03:15:49.964Z,80.43
2022-10-05T03:18:31.989Z,80.20
2022-10-05T03:21:14.027Z,80.52
2022-10-05T03:23:54.282Z,80.42
2022-10-05T03:26:37.917Z,80.34
2022-10-05T03:29:19.637Z,80.65
2022-10-05T03:31:52.388Z,80.20
2022-10-05T03:34:28.536Z,80.31
2022-10-05T03:37:04.854Z,80.08
2022-10-05T03:39:40.374Z,80.13
2022-10-05T03:42:21.081Z,79.51
2022-10-05T03:44:57.913Z,79.46
2022-10-05T03:47:32.937Z,79.49
2022-10-05T03:50:18.050Z,79.45
2022-10-05T03:52:51.913Z,79.34
2022-10-05T03:55:27.216Z,78.72
2022-10-05T03:57:59.764Z,78.64
2022-10-05T04:00:31.111Z,78.15
2022-10-05T04:03:08.637Z,78.79
2022-10-05T04:05:44.475Z,78.55
2022-10-05T04:08:21.634Z,78.55
2022-10-05T04:10:52.759Z,77.99
2022-10-05T04:13:29.352Z,77.85
2022-10-05T04:16:01.840Z,77.39
2022-10-05T04:18:35.114Z,77.32
2022-10-05T04:21:08.021Z,77.43
2022-10-05T04:23:45.538Z,77.46
2022-10-05T04:26:19.850Z,77.22
2022-10-05T04:28:55.476Z,76.94
2022-10-05T04:31:51.021Z,77.12
2022-10-05T04:34:37.935Z,76.78
2022-10-05T04:37:10.920Z,77.03
2022-10-05T04:39:46.647Z,76.59
2022-10-05T04:42:25.318Z,76.48
2022-10-05T04:45:07.318Z,76.19
2022-10-05T04:48:00.568Z,76.53
2022-10-05T04:50:41.313Z,76.62
2022-10-05T04:53:23.804Z,76.57
2022-10-05T04:55:57.349Z,76.29
2022-10-05T04:58:42.199Z,76.53
2022-10-05T05:01:24.887Z,76.08
2022-10-05T05:04:16.146Z,75.54
2022-10-05T05:06:52.243Z,75.84
2022-10-05T05:10:02.213Z,75.55
2022-10-05T05:12:39.743Z,75.58
2022-10-05T05:15:23.791Z,75.84
2022-10-05T05:18:11.605Z,75.42
2022-10-05T05:20:54.960Z,75.67
2022-10-05T05:23:35.677Z,75.58
2022-10-05T05:26:15.732Z,74.90
2022-10-05T05:28:51.614Z,74.90
2022-10-05T05:31:29.054Z,75.21
2022-10-05T05:34:06.345Z,75.52
2022-10-05T05:36:48.211Z,75.75
2022-10-05T05:39:25.677Z,75.73
2022-10-05T05:42:02.624Z,76.19
2022-10-05T05:44:38.941Z,75.94
2022-10-05T05:47:17.482Z,76.44
2022-10-05T05:50:06.948Z,76.85
2022-10-05T05:52:42.084Z,76.16
2022-10-05T05:55:18.201Z,76.73
2022-10-05T05:57:52.512Z,76.86
2022-10-05T06:00:24.186Z,76.83
2022-10-05T06:03:03.410Z,77.19
2022-10-05T06:05:34.973Z,77.08
2022-10-05T06:08:12.890Z,77.40
2022-10-05T06:10:46.194Z,77.26
2022-10-05T06:13:20.554Z,77.10
2022-10-05T06:15:54.152Z,76.99
2022-10-05T06:18:24.042Z,76.87
2022-10-05T06:21:02.298Z,77.14
2022-10-05T06:23:38.947Z,77.06
2022-10-05T06:26:16.219Z,77.17
2022-10-05T06:28:51.765Z,77.22
2022-10-05T06:31:32.451Z,77.15
2022-10-05T06:34:14.701Z,77.16
2022-10-05T06:36:49.627Z,77.56
2022-10-05T06:39:37.715Z,77.56
2022-10-05T06:42:26.625Z,77.10
2022-10-05T06:45:20.331Z,77.08
2022-10-05T06:48:05.748Z,77.07
2022-10-05T06:50:45.764Z,77.19
2022-10-05T06:53:53.780Z,77.14
2022-10-05T06:56:29.171Z,77.18
2022-10-05T06:59:05.173Z,76.92
2022-10-05T07:01:46.395Z,77.42
2022-10-05T07:04:36.750Z,77.08
2022-10-05T07:07:15.760Z,77.33
2022-10-05T07:09:58.094Z,77.07
2022-10-05T07:12:37.667Z,77.26
2022-10-05T07:15:30.639Z,77.06
2022-10-05T07:18:20.161Z,77.17
2022-10-05T07:20:54.283Z,76.94
2022-10-05T07:23:32.833Z,76.71
2022-10-05T07:26:07.274Z,77.01
2022-10-05T07:28:45.623Z,76.27
2022-10-05T07:31:22.146Z,76.72
2022-10-05T07:34:02.139Z,76.45
2022-10-05T07:36:55.204Z,77.07
2022-10-05T07:39:55.467Z,76.73
2022-10-05T07:42:30.992Z,76.66
2022-10-05T07:45:05.897Z,76.26
2022-10-05T07:47:39.481Z,75.96
2022-10-05T07:50:18.374Z,76.54
2022-10-05T07:52:54.929Z,76.31
2022-10-05T07:55:26.664Z,76.44
2022-10-05T07:58:06.708Z,75.95
2022-10-05T08:00:54.290Z,75.91
2022-10-05T08:03:32.124Z,76.19
2022-10-05T08:06:03.895Z,75.89
2022-10-05T08:08:41.046Z,75.69
2022-10-05T08:11:16.966Z,75.88
2022-10-05T08:13:52.643Z,76.04
2022-10-05T08:16:21.248Z,75.86
2022-10-05T08:18:58.229Z,75.70
2022-10-05T08:21:30.523Z,75.42
2022-10-05T08:24:04.099Z,75.56
2022-10-05T08:26:39.934Z,75.63
2022-10-05T08:29:16.940Z,75.22
2022-10-05T08:31:48.662Z,74.86
2022-10-05T08:34:31.158Z,75.38
2022-10-05T08:37:05.084Z,75.35
2022-10-05T08:39:40.088Z,74.87
2022-10-05T08:42:38.106Z,74.86
2022-10-05T08:45:52.874Z,75.06
2022-10-05T08:48:57.257Z,74.77
2022-10-05T08:51:53.432Z,74.08
2022-10-05T08:54:39.245Z,73.98
2022-10-05T08:57:33.746Z,74.26
2022-10-05T09:00:13.946Z,74.08
2022-10-05T09:03:11.548Z,73.92
2022-10-05T09:06:00.576Z,73.79
2022-10-05T09:08:56.481Z,73.18
2022-10-05T09:11:36.558Z,72.72
2022-10-05T09:14:23.508Z,73.05
2022-10-05T09:17:08.221Z,72.76
2022-10-05T09:20:11.082Z,72.91
2022-10-05T09:23:04.029Z,71.94
2022-10-05T09:25:44.187Z,71.24
2022-10-05T09:28:32.928Z,70.88
2022-10-05T09:31:42.100Z,70.74
2022-10-05T09:34:44.725Z,70.79
2022-10-05T09:37:26.503Z,70.90
2022-10-05T09:40:21.257Z,70.10
2022-10-05T09:43:10.213Z,70.27
2022-10-05T09:45:45.311Z,69.70
2022-10-05T09:49:02.807Z,69.60
2022-10-05T09:52:16.463Z,70.21
2022-10-05T09:55:14.408Z,69.88
2022-10-05T09:58:20.318Z,70.37
2022-10-05T10:01:09.407Z,68.77
2022-10-05T10:04:08.047Z,69.88
2022-10-05T10:06:53.879Z,69.29
2022-10-05T10:09:38.482Z,69.42
2022-10-05T10:12:38.387Z,68.81
2022-10-05T10:15:27.993Z,68.88
2022-10-05T10:18:28.869Z,68.50
2022-10-05T10:21:03.004Z,68.94
2022-10-05T10:23:51.525Z,69.22
2022-10-05T10:27:06.850Z,68.97
2022-10-05T10:29:46.463Z,69.67
2022-10-05T10:32:47.046Z,69.43
2022-10-05T10:35:27.064Z,69.57
2022-10-05T10:38:31.015Z,69.58
2022-10-05T10:41:31.389Z,69.38
2022-10-05T10:44:34.959Z,70.53
2022-10-05T10:47:39.326Z,70.44
2022-10-05T10:50:33.136Z,70.28
2022-10-05T10:53:12.381Z,70.41
2022-10-05T10:55:48.457Z,70.19
2022-10-05T10:58:52.546Z,70.23
2022-10-05T11:01:31.924Z,70.32
2022-10-05T11:04:40.342Z,70.20
2022-10-05T11:07:43.416Z,70.07
2022-10-05T11:10:49.900Z,70.76
2022-10-05T11:13:45.052Z,70.19
2022-10-05T11:16:42.697Z,70.67
2022-10-05T11:19:40.297Z,70.59
2022-10-05T11:22:27.630Z,70.31
2022-10-05T11:25:11.315Z,70.79
2022-10-05T11:28:00.922Z,70.31
2022-10-05T11:30:50.328Z,70.26
2022-10-05T11:33:52.991Z,69.99
2022-10-05T11:36:39.659Z,69.58
2022-10-05T11:39:38.695Z,69.26
2022-10-05T11:42:51.394Z,69.31
2022-10-05T11:45:27.193Z,69.01
2022-10-05T11:48:20.244Z,69.63
2022-10-05T11:51:05.150Z,69.11
2022-10-05T11:53:40.214Z,69.23
2022-10-05T11:56:20.144Z,68.09
2022-10-05T11:58:55.156Z,67.40
2022-10-05T12:01:34.581Z,67.39
2022-10-05T12:04:17.781Z,66.80
2022-10-05T12:07:08.818Z,66.35
2022-10-05T12:10:05.446Z,66.13
2022-10-05T12:12:40.424Z,64.96
2022-10-05T12:15:18.384Z,64.73
2022-10-05T12:17:54.525Z,64.89
2022-10-05T12:20:29.349Z,64.90
2022-10-05T12:23:04.385Z,64.77
2022-10-05T12:25:35.284Z,64.94
2022-10-05T12:28:07.200Z,65.50
2022-10-05T12:31:00.228Z,63.88
2022-10-05T12:33:35.429Z,64.24
2022-10-05T12:36:08.899Z,63.83
2022-10-05T12:38:42.696Z,62.71
2022-10-05T12:41:19.790Z,62.70
2022-10-05T12:43:59.258Z,62.86
2022-10-05T12:46:35.887Z,63.21
2022-10-05T12:49:27.881Z,62.33
2022-10-05T12:51:59.333Z,62.51
2022-10-05T12:54:40.128Z,62.33
2022-10-05T12:57:20.274Z,61.79
2022-10-05T12:59:54.729Z,61.51
2022-10-05T13:02:31.494Z,61.73
2022-10-05T13:05:12.638Z,61.86
2022-10-05T13:07:59.647Z,62.12
2022-10-05T13:10:36.076Z,62.56
2022-10-05T13:13:30.017Z,63.12
2022-10-05T13:16:04.754Z,64.00
2022-10-05T13:18:44.252Z,64.01
2022-10-05T13:21:20.373Z,64.06
2022-10-05T13:23:59.488Z,64.60
2022-10-05T13:26:32.776Z,64.70
2022-10-05T13:29:10.542Z,65.25
2022-10-05T13:31:44.016Z,65.61
2022-10-05T13:34:22.293Z,65.44
2022-10-05T13:37:02.298Z,64.85
2022-10-05T13:39:50.505Z,65.05
2022-10-05T13:42:26.806Z,65.15
2022-10-05T13:45:00.890Z,64.48
2022-10-05T13:47:35.042Z,64.58
2022-10-05T13:50:06.715Z,64.82
2022-10-05T13:52:48.481Z,63.94
2022-10-05T13:55:29.717Z,64.05
2022-10-05T13:58:06.084Z,63.42
2022-10-05T14:00:42.902Z,63.31
2022-10-05T14:03:27.426Z,63.19
2022-10-05T14:05:57.939Z,62.59
2022-10-05T14:08:33.582Z,62.11
2022-10-05T14:11:20.571Z,62.66
2022-10-05T14:13:50.600Z,61.76
2022-10-05T14:16:23.453Z,60.10
2022-10-05T14:18:54.930Z,59.71
2022-10-05T14:21:25.022Z,58.40
2022-10-05T14:23:57.188Z,57.26
2022-10-05T14:26:35.935Z,58.72
2022-10-05T14:29:18.133Z,58.59
2022-10-05T14:31:52.246Z,57.79
2022-10-05T14:34:35.580Z,57.79
2022-10-05T14:37:19.047Z,57.37
2022-10-05T14:39:50.028Z,57.57
2022-10-05T14:42:20.556Z,58.28
2022-10-05T14:44:59.995Z,59.24
2022-10-05T14:47:31.226Z,58.61
2022-10-05T14:50:16.742Z,59.73
2022-10-05T14:53:00.753Z,60.37
2022-10-05T14:55:50.600Z,59.77
2022-10-05T14:58:35.016Z,60.21
2022-10-05T15:01:13.694Z,60.62
2022-10-05T15:03:51.805Z,60.49
2022-10-05T15:06:28.110Z,60.18
2022-10-05T15:09:20.989Z,60.48
2022-10-05T15:11:54.198Z,59.82
2022-10-05T15:14:25.704Z,60.25
2022-10-05T15:16:55.452Z,60.30
2022-10-05T15:19:28.369Z,60.60
2022-10-05T15:22:18.664Z,60.90
2022-10-05T15:24:57.702Z,61.32
2022-10-05T15:27:32.694Z,61.93
2022-10-05T15:30:09.416Z,62.51
2022-10-05T15:32:51.919Z,62.56
2022-10-05T15:35:36.704Z,62.60
2022-10-05T15:38:17.780Z,62.80
2022-10-05T15:40:50.302Z,62.91
2022-10-05T15:43:22.071Z,63.50
2022-10-05T15:45:58.163Z,63.54
2022-10-05T15:48:37.417Z,64.12
2022-10-05T15:51:18.634Z,64.15
2022-10-05T15:54:15.726Z,64.47
2022-10-05T15:56:48.937Z,64.69
2022-10-05T15:59:28.433Z,65.12
2022-10-05T16:02:01.458Z,65.02
2022-10-05T16:04:40.740Z,64.97
2022-10-05T16:07:35.856Z,64.18
2022-10-05T16:10:13.548Z,63.86
2022-10-05T16:12:54.698Z,63.74
2022-10-05T16:15:33.442Z,63.59
2022-10-05T16:18:15.466Z,63.41
2022-10-05T16:20:51.077Z,63.71
2022-10-05T16:23:28.094Z,63.27
2022-10-05T16:26:11.580Z,63.38
2022-10-05T16:28:47.658Z,63.40
2022-10-05T16:31:22.066Z,64.07
2022-10-05T16:34:01.557Z,64.30
2022-10-05T16:36:48.493Z,64.18
2022-10-05T16:39:24.360Z,64.88
2022-10-05T16:42:00.987Z,64.81
2022-10-05T16:44:38.791Z,64.83
2022-10-05T16:47:33.415Z,65.57
2022-10-05T16:50:12.298Z,65.76
2022-10-05T16:52:43.413Z,65.88
2022-10-05T16:55:27.965Z,65.79
2022-10-05T16:58:06.762Z,66.38
2022-10-05T17:00:51.910Z,66.26
2022-10-05T17:03:30.501Z,66.58
2022-10-05T17:06:30.067Z,66.60
2022-10-05T17:09:18.972Z,66.92
2022-10-05T17:12:02.499Z,67.02
2022-10-05T17:14:39.723Z,66.93
2022-10-05T17:17:24.656Z,67.63
2022-10-05T17:20:07.030Z,67.68
2022-10-05T17:22:39.841Z,67.38
2022-10-05T17:25:18.289Z,68.09
2022-10-05T17:27:54.810Z,68.19
2022-10-05T17:30:47.318Z,68.43
2022-10-05T17:33:25.745Z,68.18
2022-10-05T17:36:12.856Z,68.29
2022-10-05T17:38:50.153Z,68.56
2022-10-05T17:41:23.929Z,68.53
2022-10-05T17:44:19.293Z,68.74
2022-10-05T17:46:49.340Z,68.85
2022-10-05T17:49:46.793Z,68.85
2022-10-05T17:52:44.977Z,69.30
2022-10-05T17:55:30.001Z,69.21
2022-10-05T17:58:00.462Z,69.65
2022-10-05T18:00:41.916Z,69.36
2022-10-05T18:03:35.064Z,69.28
2022-10-05T18:06:33.213Z,69.55
2022-10-05T18:09:28.777Z,69.41
2022-10-05T18:12:42.386Z,69.58
2022-10-05T18:15:46.050Z,69.68
2022-10-05T18:18:54.613Z,69.86
2022-10-05T18:21:37.951Z,69.65
2022-10-05T18:24:45.776Z,70.11
2022-10-05T18:27:39.261Z,70.09
2022-10-05T18:30:18.782Z,69.75
2022-10-05T18:33:09.653Z,70.32
2022-10-05T18:35:50.761Z,70.01
2022-10-05T18:38:31.661Z,70.31
2022-10-05T18:41:04.761Z,70.18
2022-10-05T18:43:40.880Z,70.21
2022-10-05T18:46:22.273Z,70.46
2022-10-05T18:49:03.430Z,70.74
2022-10-05T18:51:41.507Z,70.64
2022-10-05T18:54:27.160Z,70.44
2022-10-05T18:56:56.329Z,70.60
2022-10-05T18:59:39.072Z,70.90
2022-10-05T19:02:24.494Z,70.44
2022-10-05T19:05:04.609Z,70.74
2022-10-05T19:07:44.708Z,70.75
2022-10-05T19:10:23.015Z,70.59
2022-10-05T19:13:00.356Z,70.80
2022-10-05T19:15:36.940Z,70.96
2022-10-05T19:18:28.807Z,72.00
2022-10-05T19:21:03.075Z,73.06
2022-10-05T19:23:53.031Z,72.75
2022-10-05T19:26:36.866Z,72.50
2022-10-05T19:29:15.776Z,72.86
2022-10-05T19:31:49.284Z,72.84
2022-10-05T19:34:30.462Z,72.79
2022-10-05T19:37:07.976Z,73.08
2022-10-05T19:39:46.034Z,73.21
2022-10-05T19:42:31.505Z,73.41
2022-10-05T19:45:13.760Z,74.01
2022-10-05T19:47:55.480Z,74.92
2022-10-05T19:50:32.803Z,77.35
2022-10-05T19:53:12.532Z,78.34
2022-10-05T19:55:42.298Z,78.24
2022-10-05T19:58:22.551Z,78.29
2022-10-05T20:00:57.341Z,79.55
2022-10-05T20:03:30.221Z,79.66
2022-10-05T20:05:59.821Z,79.22
2022-10-05T20:08:31.847Z,79.51
2022-10-05T20:11:14.066Z,79.12
2022-10-05T20:13:43.750Z,79.92
2022-10-05T20:16:39.365Z,80.55
2022-10-05T20:19:44.747Z,80.81
2022-10-05T20:22:31.482Z,81.13
2022-10-05T20:25:01.199Z,80.97
2022-10-05T20:27:47.002Z,81.31
2022-10-05T20:30:16.714Z,81.24
2022-10-05T20:32:48.491Z,82.08
2022-10-05T20:35:16.783Z,82.23
2022-10-05T20:37:44.577Z,82.38
2022-10-05T20:40:12.893Z,83.00
2022-10-05T20:42:40.620Z,83.30
2022-10-05T20:45:09.510Z,82.76
2022-10-05T20:47:38.193Z,82.93
2022-10-05T20:50:09.401Z,83.89
2022-10-05T20:52:38.094Z,84.16
2022-10-05T20:55:07.170Z,84.23
2022-10-05T20:57:35.081Z,84.45
2022-10-05T21:00:02.933Z,84.71
2022-10-05T21:02:30.718Z,85.06
2022-10-05T21:04:58.540Z,84.99
2022-10-05T21:07:27.649Z,85.18
2022-10-05T21:09:55.719Z,85.01
2022-10-05T21:12:23.514Z,84.36
2022-10-05T21:14:52.654Z,83.74
2022-10-05T21:17:20.863Z,82.73
2022-10-05T21:19:48.653Z,82.35
2022-10-05T21:22:16.382Z,82.13
2022-10-05T21:24:45.710Z,82.52
2022-10-05T21:27:13.654Z,82.42
2022-10-05T21:29:42.472Z,82.45
2022-10-05T21:32:11.575Z,82.38
2022-10-05T21:34:40.158Z,82.34
2022-10-05T21:37:08.001Z,82.31
2022-10-05T21:39:36.606Z,82.34
2022-10-05T21:42:05.983Z,82.45
2022-10-05T21:44:33.704Z,82.60
2022-10-05T21:47:01.889Z,82.58
2022-10-05T21:49:29.757Z,82.82
2022-10-05T21:51:57.979Z,83.27
2022-10-05T21:54:25.864Z,83.15
2022-10-05T21:56:56.682Z,83.25
2022-10-05T21:59:30.259Z,83.30
2022-10-05T22:01:58.360Z,83.44
2022-10-05T22:04:26.187Z,83.37
2022-10-05T22:06:55.021Z,83.63
2022-10-05T22:09:23.020Z,83.91
2022-10-05T22:11:50.732Z,83.97
2022-10-05T22:14:18.509Z,84.24
2022-10-05T22:16:47.761Z,84.51
2022-10-05T22:19:18.543Z,84.88
2022-10-05T22:21:46.319Z,85.43
2022-10-05T22:24:14.046Z,85.71
2022-10-05T22:26:44.693Z,85.92
2022-10-05T22:29:12.709Z,86.21
2022-10-05T22:31:40.692Z,86.28
2022-10-05T22:34:09.822Z,86.28
2022-10-05T22:36:38.274Z,86.64
2022-10-05T22:39:06.114Z,86.84
2022-10-05T22:41:33.854Z,87.04
2022-10-05T22:44:02.689Z,87.11
2022-10-05T22:46:30.495Z,87.28
2022-10-05T22:48:58.341Z,87.43
2022-10-05T22:51:27.379Z,87.53
2022-10-05T22:53:55.074Z,87.33
2022-10-05T22:56:22.810Z,87.35
2022-10-05T22:58:51.011Z,87.77
2022-10-05T23:01:20.146Z,87.81
2022-10-05T23:03:48.744Z,88.08
2022-10-05T23:06:18.163Z,87.74
2022-10-05T23:08:47.992Z,87.62
2022-10-05T23:11:17.930Z,87.38
2022-10-05T23:13:45.743Z,87.29
2022-10-05T23:16:16.069Z,87.43
2022-10-05T23:18:44.210Z,87.41
2022-10-05T23:21:12.589Z,87.60
2022-10-05T23:23:41.882Z,87.60
2022-10-05T23:26:12.437Z,87.86
2022-10-05T23:28:42.983Z,87.73
2022-10-05T23:31:10.868Z,87.35
2022-10-05T23:33:38.675Z,87.09
2022-10-05T23:36:08.730Z,86.57
2022-10-05T23:38:37.558Z,85.70
2022-10-05T23:41:06.050Z,85.51
2022-10-05T23:43:35.562Z,85.23
2022-10-05T23:46:04.777Z,85.11
2022-10-05T23:48:32.846Z,85.21
2022-10-05T23:51:01.116Z,85.32
2022-10-05T23:53:28.863Z,85.16
2022-10-05T23:55:56.802Z,85.17
2022-10-05T23:58:24.892Z,85.18
